sensor_id;sensor_type;location;lat;lon;timestamp;temperature;humidity
15617;DHT22;7908;51.688;7.130;2022-10-01T00:02:05;12.40;99.90
15617;DHT22;7908;51.688;7.130;2022-10-01T00:04:35;12.30;99.90
15617;DHT22;7908;51.688;7.130;2022-10-01T00:07:04;12.30;99.90
15617;DHT22;7908;51.688;7.130;2022-10-01T00:09:38;12.30;99.90
15617;DHT22;7908;51.688;7.130;2022-10-01T00:12:07;12.40;99.90
15617;DHT22;7908;51.688;7.130;2022-10-01T00:14:36;12.40;99.90
15617;DHT22;7908;51.688;7.130;2022-10-01T00:17:05;12.40;99.90
15617;DHT22;7908;51.688;7.130;2022-10-01T00:19:34;12.40;99.90
15617;DHT22;7908;51.688;7.130;2022-10-01T00:22:03;12.50;99.90
15617;DHT22;7908;51.688;7.130;2022-10-01T00:24:31;12.50;99.90
15617;DHT22;7908;51.688;7.130;2022-10-01T00:27:04;12.50;99.90
15617;DHT22;7908;51.688;7.130;2022-10-01T00:29:33;12.50;99.90
15617;DHT22;7908;51.688;7.130;2022-10-01T00:32:01;12.50;99.90
15617;DHT22;7908;51.688;7.130;2022-10-01T00:34:30;12.50;99.90
15617;DHT22;7908;51.688;7.130;2022-10-01T00:36:59;12.40;99.90
15617;DHT22;7908;51.688;7.130;2022-10-01T00:39:27;12.30;99.90
15617;DHT22;7908;51.688;7.130;2022-10-01T00:41:56;12.20;99.90
15617;DHT22;7908;51.688;7.130;2022-10-01T00:44:32;11.90;99.90
15617;DHT22;7908;51.688;7.130;2022-10-01T00:47:06;11.70;99.90
15617;DHT22;7908;51.688;7.130;2022-10-01T00:49:37;11.50;99.90
15617;DHT22;7908;51.688;7.130;2022-10-01T00:52:11;11.30;99.90
15617;DHT22;7908;51.688;7.130;2022-10-01T00:54:45;11.20;99.90
15617;DHT22;7908;51.688;7.130;2022-10-01T00:57:17;11.10;99.90
15617;DHT22;7908;51.688;7.130;2022-10-01T00:59:49;11.00;99.90
15617;DHT22;7908;51.688;7.130;2022-10-01T01:02:19;10.90;99.90
15617;DHT22;7908;51.688;7.130;2022-10-01T01:04:48;10.80;99.90
15617;DHT22;7908;51.688;7.130;2022-10-01T01:07:17;10.80;99.90
15617;DHT22;7908;51.688;7.130;2022-10-01T01:09:48;10.70;99.90
15617;DHT22;7908;51.688;7.130;2022-10-01T01:12:37;10.70;99.90
15617;DHT22;7908;51.688;7.130;2022-10-01T01:15:15;10.70;99.90
15617;DHT22;7908;51.688;7.130;2022-10-01T01:17:51;10.60;99.90
15617;DHT22;7908;51.688;7.130;2022-10-01T01:20:34;10.60;99.90
15617;DHT22;7908;51.688;7.130;2022-10-01T01:26:14;10.50;99.90
15617;DHT22;7908;51.688;7.130;2022-10-01T01:28:47;10.60;99.90
15617;DHT22;7908;51.688;7.130;2022-10-01T01:31:21;10.50;99.90
15617;DHT22;7908;51.688;7.130;2022-10-01T01:33:53;10.50;99.90
15617;DHT22;7908;51.688;7.130;2022-10-01T01:36:26;10.50;99.90
15617;DHT22;7908;51.688;7.130;2022-10-01T01:39:00;10.50;99.90
15617;DHT22;7908;51.688;7.130;2022-10-01T01:41:47;10.40;99.90
15617;DHT22;7908;51.688;7.130;2022-10-01T01:44:22;10.40;99.90
15617;DHT22;7908;51.688;7.130;2022-10-01T01:46:54;10.40;99.90
15617;DHT22;7908;51.688;7.130;2022-10-01T01:49:23;10.40;99.90
15617;DHT22;7908;51.688;7.130;2022-10-01T01:51:57;10.40;99.90
15617;DHT22;7908;51.688;7.130;2022-10-01T01:54:28;10.30;99.90
15617;DHT22;7908;51.688;7.130;2022-10-01T01:56:57;10.30;99.90
15617;DHT22;7908;51.688;7.130;2022-10-01T01:59:29;10.30;99.90
15617;DHT22;7908;51.688;7.130;2022-10-01T02:01:58;10.30;99.90
15617;DHT22;7908;51.688;7.130;2022-10-01T02:04:30;10.30;99.90
15617;DHT22;7908;51.688;7.130;2022-10-01T02:07:18;10.20;99.90
15617;DHT22;7908;51.688;7.130;2022-10-01T02:09:54;10.30;99.90
15617;DHT22;7908;51.688;7.130;2022-10-01T02:12:36;10.30;99.90
15617;DHT22;7908;51.688;7.130;2022-10-01T02:15:14;10.30;99.90
15617;DHT22;7908;51.688;7.130;2022-10-01T02:17:53;10.30;99.90
15617;DHT22;7908;51.688;7.130;2022-10-01T02:20:28;10.20;99.90
15617;DHT22;7908;51.688;7.130;2022-10-01T02:23:00;10.20;99.90
15617;DHT22;7908;51.688;7.130;2022-10-01T02:25:33;10.20;99.90
15617;DHT22;7908;51.688;7.130;2022-10-01T02:28:07;10.20;99.90
15617;DHT22;7908;51.688;7.130;2022-10-01T02:30:39;10.20;99.90
15617;DHT22;7908;51.688;7.130;2022-10-01T02:33:14;10.20;99.90
15617;DHT22;7908;51.688;7.130;2022-10-01T02:35:45;10.20;99.90
15617;DHT22;7908;51.688;7.130;2022-10-01T02:38:16;10.20;99.90
15617;DHT22;7908;51.688;7.130;2022-10-01T02:40:47;10.20;99.90
15617;DHT22;7908;51.688;7.130;2022-10-01T02:43:20;10.20;99.90
15617;DHT22;7908;51.688;7.130;2022-10-01T02:45:55;10.20;99.90
15617;DHT22;7908;51.688;7.130;2022-10-01T02:48:25;10.20;99.90
15617;DHT22;7908;51.688;7.130;2022-10-01T02:51:00;10.20;99.90
15617;DHT22;7908;51.688;7.130;2022-10-01T02:53:33;10.20;99.90
15617;DHT22;7908;51.688;7.130;2022-10-01T02:56:04;10.20;99.90
15617;DHT22;7908;51.688;7.130;2022-10-01T02:58:33;10.20;99.90
15617;DHT22;7908;51.688;7.130;2022-10-01T03:01:03;10.20;99.90
15617;DHT22;7908;51.688;7.130;2022-10-01T03:03:32;10.20;99.90
15617;DHT22;7908;51.688;7.130;2022-10-01T03:06:01;10.10;99.90
15617;DHT22;7908;51.688;7.130;2022-10-01T03:08:29;10.10;99.90
15617;DHT22;7908;51.688;7.130;2022-10-01T03:10:58;10.10;99.90
15617;DHT22;7908;51.688;7.130;2022-10-01T03:13:27;10.10;99.90
15617;DHT22;7908;51.688;7.130;2022-10-01T03:15:56;10.10;99.90
15617;DHT22;7908;51.688;7.130;2022-10-01T03:18:26;10.20;99.90
15617;DHT22;7908;51.688;7.130;2022-10-01T03:20:54;10.20;99.90
15617;DHT22;7908;51.688;7.130;2022-10-01T03:23:23;10.20;99.90
15617;DHT22;7908;51.688;7.130;2022-10-01T03:25:51;10.20;99.90
15617;DHT22;7908;51.688;7.130;2022-10-01T03:28:20;10.10;99.90
15617;DHT22;7908;51.688;7.130;2022-10-01T03:30:49;10.10;99.90
15617;DHT22;7908;51.688;7.130;2022-10-01T03:33:17;10.10;99.90
15617;DHT22;7908;51.688;7.130;2022-10-01T03:35:47;10.10;99.90
15617;DHT22;7908;51.688;7.130;2022-10-01T03:38:16;10.20;99.90
15617;DHT22;7908;51.688;7.130;2022-10-01T03:40:45;10.10;99.90
15617;DHT22;7908;51.688;7.130;2022-10-01T03:43:13;10.20;99.90
15617;DHT22;7908;51.688;7.130;2022-10-01T03:45:42;10.10;99.90
15617;DHT22;7908;51.688;7.130;2022-10-01T03:48:10;10.10;99.90
15617;DHT22;7908;51.688;7.130;2022-10-01T03:50:39;10.20;99.90
15617;DHT22;7908;51.688;7.130;2022-10-01T03:53:09;10.20;99.90
15617;DHT22;7908;51.688;7.130;2022-10-01T03:55:38;10.20;99.90
15617;DHT22;7908;51.688;7.130;2022-10-01T03:58:07;10.20;99.90
15617;DHT22;7908;51.688;7.130;2022-10-01T04:00:35;10.20;99.90
15617;DHT22;7908;51.688;7.130;2022-10-01T04:03:04;10.20;99.90
15617;DHT22;7908;51.688;7.130;2022-10-01T04:05:33;10.20;99.90
15617;DHT22;7908;51.688;7.130;2022-10-01T04:08:02;10.20;99.90
15617;DHT22;7908;51.688;7.130;2022-10-01T04:10:32;10.20;99.90
15617;DHT22;7908;51.688;7.130;2022-10-01T04:13:00;10.30;99.90
15617;DHT22;7908;51.688;7.130;2022-10-01T04:15:29;10.30;99.90
15617;DHT22;7908;51.688;7.130;2022-10-01T04:17:59;10.30;99.90
15617;DHT22;7908;51.688;7.130;2022-10-01T04:20:28;10.30;99.90
15617;DHT22;7908;51.688;7.130;2022-10-01T04:22:57;10.30;99.90
15617;DHT22;7908;51.688;7.130;2022-10-01T04:25:26;10.30;99.90
15617;DHT22;7908;51.688;7.130;2022-10-01T04:27:58;10.30;99.90
15617;DHT22;7908;51.688;7.130;2022-10-01T04:30:29;10.30;99.90
15617;DHT22;7908;51.688;7.130;2022-10-01T04:32:57;10.30;99.90
15617;DHT22;7908;51.688;7.130;2022-10-01T04:35:27;10.40;99.90
15617;DHT22;7908;51.688;7.130;2022-10-01T04:37:56;10.40;99.90
15617;DHT22;7908;51.688;7.130;2022-10-01T04:40:29;10.40;99.90
15617;DHT22;7908;51.688;7.130;2022-10-01T04:43:02;10.40;99.90
15617;DHT22;7908;51.688;7.130;2022-10-01T04:45:31;10.40;99.90
15617;DHT22;7908;51.688;7.130;2022-10-01T04:48:00;10.40;99.90
15617;DHT22;7908;51.688;7.130;2022-10-01T04:50:29;10.40;99.90
15617;DHT22;7908;51.688;7.130;2022-10-01T04:52:58;10.40;99.90
15617;DHT22;7908;51.688;7.130;2022-10-01T04:55:26;10.40;99.90
15617;DHT22;7908;51.688;7.130;2022-10-01T04:57:55;10.40;99.90
15617;DHT22;7908;51.688;7.130;2022-10-01T05:00:25;10.50;99.90
15617;DHT22;7908;51.688;7.130;2022-10-01T05:02:53;10.50;99.90
15617;DHT22;7908;51.688;7.130;2022-10-01T05:05:23;10.50;99.90
15617;DHT22;7908;51.688;7.130;2022-10-01T05:07:54;10.50;99.90
15617;DHT22;7908;51.688;7.130;2022-10-01T05:10:22;10.50;99.90
15617;DHT22;7908;51.688;7.130;2022-10-01T05:12:52;10.50;99.90
15617;DHT22;7908;51.688;7.130;2022-10-01T05:15:21;10.60;99.90
15617;DHT22;7908;51.688;7.130;2022-10-01T05:17:51;10.60;99.90
15617;DHT22;7908;51.688;7.130;2022-10-01T05:20:21;10.60;99.90
15617;DHT22;7908;51.688;7.130;2022-10-01T05:22:50;10.60;99.90
15617;DHT22;7908;51.688;7.130;2022-10-01T05:25:19;10.60;99.90
15617;DHT22;7908;51.688;7.130;2022-10-01T05:27:48;10.60;99.90
15617;DHT22;7908;51.688;7.130;2022-10-01T05:30:17;10.60;99.90
15617;DHT22;7908;51.688;7.130;2022-10-01T05:32:56;10.60;99.90
15617;DHT22;7908;51.688;7.130;2022-10-01T05:35:25;10.60;99.90
15617;DHT22;7908;51.688;7.130;2022-10-01T05:37:55;10.60;99.90
15617;DHT22;7908;51.688;7.130;2022-10-01T05:40:25;10.70;99.90
15617;DHT22;7908;51.688;7.130;2022-10-01T05:42:55;10.70;99.90
15617;DHT22;7908;51.688;7.130;2022-10-01T05:45:26;10.70;99.90
15617;DHT22;7908;51.688;7.130;2022-10-01T05:48:01;10.70;99.90
15617;DHT22;7908;51.688;7.130;2022-10-01T05:50:31;10.70;99.90
15617;DHT22;7908;51.688;7.130;2022-10-01T05:53:00;10.70;99.90
15617;DHT22;7908;51.688;7.130;2022-10-01T05:55:29;10.70;99.90
15617;DHT22;7908;51.688;7.130;2022-10-01T05:58:03;10.70;99.90
15617;DHT22;7908;51.688;7.130;2022-10-01T06:00:32;10.80;99.90
15617;DHT22;7908;51.688;7.130;2022-10-01T06:03:03;10.80;99.90
15617;DHT22;7908;51.688;7.130;2022-10-01T06:05:34;10.80;99.90
15617;DHT22;7908;51.688;7.130;2022-10-01T06:08:04;10.80;99.90
15617;DHT22;7908;51.688;7.130;2022-10-01T06:10:33;10.80;99.90
15617;DHT22;7908;51.688;7.130;2022-10-01T06:13:03;10.80;99.90
15617;DHT22;7908;51.688;7.130;2022-10-01T06:15:34;10.80;99.90
15617;DHT22;7908;51.688;7.130;2022-10-01T06:18:06;10.90;99.90
15617;DHT22;7908;51.688;7.130;2022-10-01T06:20:35;10.90;99.90
15617;DHT22;7908;51.688;7.130;2022-10-01T06:23:06;10.90;99.90
15617;DHT22;7908;51.688;7.130;2022-10-01T06:25:38;10.90;99.90
15617;DHT22;7908;51.688;7.130;2022-10-01T06:28:08;10.90;99.90
15617;DHT22;7908;51.688;7.130;2022-10-01T06:30:38;10.90;99.90
15617;DHT22;7908;51.688;7.130;2022-10-01T06:33:10;11.00;99.90
15617;DHT22;7908;51.688;7.130;2022-10-01T06:35:41;11.00;99.90
15617;DHT22;7908;51.688;7.130;2022-10-01T06:38:10;11.10;99.90
15617;DHT22;7908;51.688;7.130;2022-10-01T06:40:39;11.10;99.90
15617;DHT22;7908;51.688;7.130;2022-10-01T06:43:08;11.10;99.90
15617;DHT22;7908;51.688;7.130;2022-10-01T06:45:39;11.10;99.90
15617;DHT22;7908;51.688;7.130;2022-10-01T06:48:12;11.20;99.90
15617;DHT22;7908;51.688;7.130;2022-10-01T06:50:42;11.20;99.90
15617;DHT22;7908;51.688;7.130;2022-10-01T06:53:12;11.20;99.90
15617;DHT22;7908;51.688;7.130;2022-10-01T06:55:42;11.30;99.90
15617;DHT22;7908;51.688;7.130;2022-10-01T06:58:13;11.30;99.90
15617;DHT22;7908;51.688;7.130;2022-10-01T07:00:42;11.30;99.90
15617;DHT22;7908;51.688;7.130;2022-10-01T07:03:14;11.40;99.90
15617;DHT22;7908;51.688;7.130;2022-10-01T07:05:44;11.40;99.90
15617;DHT22;7908;51.688;7.130;2022-10-01T07:08:13;11.40;99.90
15617;DHT22;7908;51.688;7.130;2022-10-01T07:10:41;11.40;99.90
15617;DHT22;7908;51.688;7.130;2022-10-01T07:13:11;11.40;99.90
15617;DHT22;7908;51.688;7.130;2022-10-01T07:15:40;11.50;99.90
15617;DHT22;7908;51.688;7.130;2022-10-01T07:18:10;11.50;99.90
15617;DHT22;7908;51.688;7.130;2022-10-01T07:20:40;11.50;99.90
15617;DHT22;7908;51.688;7.130;2022-10-01T07:23:10;11.60;99.90
15617;DHT22;7908;51.688;7.130;2022-10-01T07:25:40;11.60;99.90
15617;DHT22;7908;51.688;7.130;2022-10-01T07:28:12;11.60;99.90
15617;DHT22;7908;51.688;7.130;2022-10-01T07:30:44;11.70;99.90
15617;DHT22;7908;51.688;7.130;2022-10-01T07:33:17;11.70;99.90
15617;DHT22;7908;51.688;7.130;2022-10-01T07:35:47;11.70;99.90
15617;DHT22;7908;51.688;7.130;2022-10-01T07:38:16;11.70;99.90
15617;DHT22;7908;51.688;7.130;2022-10-01T07:40:49;11.80;99.90
15617;DHT22;7908;51.688;7.130;2022-10-01T07:43:18;11.80;99.90
15617;DHT22;7908;51.688;7.130;2022-10-01T07:45:47;11.80;99.90
15617;DHT22;7908;51.688;7.130;2022-10-01T07:48:18;11.90;99.90
15617;DHT22;7908;51.688;7.130;2022-10-01T07:50:48;12.00;99.90
15617;DHT22;7908;51.688;7.130;2022-10-01T07:53:17;12.00;99.90
15617;DHT22;7908;51.688;7.130;2022-10-01T07:55:46;12.20;99.90
15617;DHT22;7908;51.688;7.130;2022-10-01T07:58:15;12.30;99.90
15617;DHT22;7908;51.688;7.130;2022-10-01T08:00:44;12.30;99.90
15617;DHT22;7908;51.688;7.130;2022-10-01T08:03:16;12.40;99.90
15617;DHT22;7908;51.688;7.130;2022-10-01T08:05:44;12.50;99.90
15617;DHT22;7908;51.688;7.130;2022-10-01T08:08:15;12.50;99.90
15617;DHT22;7908;51.688;7.130;2022-10-01T08:10:44;12.50;99.90
15617;DHT22;7908;51.688;7.130;2022-10-01T08:13:15;12.60;99.90
15617;DHT22;7908;51.688;7.130;2022-10-01T08:15:45;12.60;99.90
15617;DHT22;7908;51.688;7.130;2022-10-01T08:18:16;12.70;99.90
15617;DHT22;7908;51.688;7.130;2022-10-01T08:20:45;12.70;99.90
15617;DHT22;7908;51.688;7.130;2022-10-01T08:23:16;12.70;99.90
15617;DHT22;7908;51.688;7.130;2022-10-01T08:25:46;12.80;99.90
15617;DHT22;7908;51.688;7.130;2022-10-01T08:28:15;12.80;99.90
15617;DHT22;7908;51.688;7.130;2022-10-01T08:30:44;12.90;99.90
15617;DHT22;7908;51.688;7.130;2022-10-01T08:33:13;13.00;99.90
15617;DHT22;7908;51.688;7.130;2022-10-01T08:35:42;13.10;99.90
15617;DHT22;7908;51.688;7.130;2022-10-01T08:38:11;13.10;99.90
15617;DHT22;7908;51.688;7.130;2022-10-01T08:40:44;13.10;99.90
15617;DHT22;7908;51.688;7.130;2022-10-01T08:43:27;13.10;99.90
15617;DHT22;7908;51.688;7.130;2022-10-01T08:45:59;13.10;99.90
15617;DHT22;7908;51.688;7.130;2022-10-01T08:48:43;13.20;99.90
15617;DHT22;7908;51.688;7.130;2022-10-01T08:51:28;13.20;99.90
15617;DHT22;7908;51.688;7.130;2022-10-01T08:54:06;13.20;99.90
15617;DHT22;7908;51.688;7.130;2022-10-01T08:56:39;13.30;99.90
15617;DHT22;7908;51.688;7.130;2022-10-01T08:59:21;13.30;99.90
15617;DHT22;7908;51.688;7.130;2022-10-01T09:01:53;13.40;99.90
15617;DHT22;7908;51.688;7.130;2022-10-01T09:04:23;13.50;99.90
15617;DHT22;7908;51.688;7.130;2022-10-01T09:07:00;13.60;99.90
15617;DHT22;7908;51.688;7.130;2022-10-01T09:09:40;13.80;99.90
15617;DHT22;7908;51.688;7.130;2022-10-01T09:12:23;13.90;99.90
15617;DHT22;7908;51.688;7.130;2022-10-01T09:15:04;14.00;99.90
15617;DHT22;7908;51.688;7.130;2022-10-01T09:17:43;14.00;99.90
15617;DHT22;7908;51.688;7.130;2022-10-01T09:20:22;14.00;99.90
15617;DHT22;7908;51.688;7.130;2022-10-01T09:23:01;14.00;99.90
15617;DHT22;7908;51.688;7.130;2022-10-01T09:25:34;14.10;99.90
15617;DHT22;7908;51.688;7.130;2022-10-01T09:28:13;14.20;99.90
15617;DHT22;7908;51.688;7.130;2022-10-01T09:30:46;14.30;99.90
15617;DHT22;7908;51.688;7.130;2022-10-01T09:33:18;14.30;99.90
15617;DHT22;7908;51.688;7.130;2022-10-01T09:35:50;14.30;99.90
15617;DHT22;7908;51.688;7.130;2022-10-01T09:38:26;14.20;99.90
15617;DHT22;7908;51.688;7.130;2022-10-01T09:40:57;14.20;99.90
15617;DHT22;7908;51.688;7.130;2022-10-01T09:43:29;14.10;99.90
15617;DHT22;7908;51.688;7.130;2022-10-01T09:45:58;14.10;99.90
15617;DHT22;7908;51.688;7.130;2022-10-01T09:48:32;14.20;99.90
15617;DHT22;7908;51.688;7.130;2022-10-01T09:51:07;14.30;99.90
15617;DHT22;7908;51.688;7.130;2022-10-01T09:53:41;14.30;99.90
15617;DHT22;7908;51.688;7.130;2022-10-01T09:56:17;14.40;99.90
15617;DHT22;7908;51.688;7.130;2022-10-01T09:58:53;14.50;99.90
15617;DHT22;7908;51.688;7.130;2022-10-01T10:01:28;14.60;99.90
15617;DHT22;7908;51.688;7.130;2022-10-01T10:03:58;14.60;99.90
15617;DHT22;7908;51.688;7.130;2022-10-01T10:06:29;14.70;99.90
15617;DHT22;7908;51.688;7.130;2022-10-01T10:08:59;14.60;99.90
15617;DHT22;7908;51.688;7.130;2022-10-01T10:11:32;14.60;99.90
15617;DHT22;7908;51.688;7.130;2022-10-01T10:14:03;14.60;99.90
15617;DHT22;7908;51.688;7.130;2022-10-01T10:16:34;14.60;99.90
15617;DHT22;7908;51.688;7.130;2022-10-01T10:19:06;14.50;99.90
15617;DHT22;7908;51.688;7.130;2022-10-01T10:21:50;14.50;99.90
15617;DHT22;7908;51.688;7.130;2022-10-01T10:24:24;14.60;99.90
15617;DHT22;7908;51.688;7.130;2022-10-01T10:26:56;14.60;99.90
15617;DHT22;7908;51.688;7.130;2022-10-01T10:29:29;14.80;99.90
15617;DHT22;7908;51.688;7.130;2022-10-01T10:32:01;14.80;99.90
15617;DHT22;7908;51.688;7.130;2022-10-01T10:34:32;14.80;99.90
15617;DHT22;7908;51.688;7.130;2022-10-01T10:37:03;14.90;99.90
15617;DHT22;7908;51.688;7.130;2022-10-01T10:39:36;14.90;99.90
15617;DHT22;7908;51.688;7.130;2022-10-01T10:42:06;14.90;99.90
15617;DHT22;7908;51.688;7.130;2022-10-01T10:44:37;14.80;99.90
15617;DHT22;7908;51.688;7.130;2022-10-01T10:47:08;14.80;99.90
15617;DHT22;7908;51.688;7.130;2022-10-01T10:49:43;14.70;99.90
15617;DHT22;7908;51.688;7.130;2022-10-01T10:52:20;14.70;99.90
15617;DHT22;7908;51.688;7.130;2022-10-01T10:54:52;14.60;99.90
15617;DHT22;7908;51.688;7.130;2022-10-01T10:57:24;14.60;99.90
15617;DHT22;7908;51.688;7.130;2022-10-01T10:59:57;14.50;99.90
15617;DHT22;7908;51.688;7.130;2022-10-01T11:02:27;14.50;99.90
15617;DHT22;7908;51.688;7.130;2022-10-01T11:04:58;14.60;99.90
15617;DHT22;7908;51.688;7.130;2022-10-01T11:07:29;14.90;99.90
15617;DHT22;7908;51.688;7.130;2022-10-01T11:10:20;15.00;99.90
15617;DHT22;7908;51.688;7.130;2022-10-01T11:16:11;15.50;99.90
15617;DHT22;7908;51.688;7.130;2022-10-01T11:18:58;15.70;99.90
15617;DHT22;7908;51.688;7.130;2022-10-01T11:21:52;15.70;99.90
15617;DHT22;7908;51.688;7.130;2022-10-01T11:24:38;15.70;99.90
15617;DHT22;7908;51.688;7.130;2022-10-01T11:27:16;15.60;99.90
15617;DHT22;7908;51.688;7.130;2022-10-01T11:29:57;15.50;99.90
15617;DHT22;7908;51.688;7.130;2022-10-01T11:32:36;15.40;99.90
15617;DHT22;7908;51.688;7.130;2022-10-01T11:35:20;15.20;99.90
15617;DHT22;7908;51.688;7.130;2022-10-01T11:37:59;15.10;99.90
15617;DHT22;7908;51.688;7.130;2022-10-01T11:40:37;14.90;99.90
15617;DHT22;7908;51.688;7.130;2022-10-01T11:43:17;14.60;99.90
15617;DHT22;7908;51.688;7.130;2022-10-01T11:45:51;14.20;99.90
15617;DHT22;7908;51.688;7.130;2022-10-01T11:48:27;13.90;99.90
15617;DHT22;7908;51.688;7.130;2022-10-01T11:51:00;13.60;99.90
15617;DHT22;7908;51.688;7.130;2022-10-01T11:53:32;13.30;99.90
15617;DHT22;7908;51.688;7.130;2022-10-01T11:56:06;12.90;99.90
15617;DHT22;7908;51.688;7.130;2022-10-01T11:58:58;12.70;99.90
15617;DHT22;7908;51.688;7.130;2022-10-01T12:01:36;12.60;99.90
15617;DHT22;7908;51.688;7.130;2022-10-01T12:04:16;12.40;99.90
15617;DHT22;7908;51.688;7.130;2022-10-01T12:06:54;12.20;99.90
15617;DHT22;7908;51.688;7.130;2022-10-01T12:09:30;12.20;99.90
15617;DHT22;7908;51.688;7.130;2022-10-01T12:12:04;12.30;99.90
15617;DHT22;7908;51.688;7.130;2022-10-01T12:14:39;12.30;99.90
15617;DHT22;7908;51.688;7.130;2022-10-01T12:17:16;12.40;99.90
15617;DHT22;7908;51.688;7.130;2022-10-01T12:19:49;12.40;99.90
15617;DHT22;7908;51.688;7.130;2022-10-01T12:22:23;12.50;99.90
15617;DHT22;7908;51.688;7.130;2022-10-01T12:24:53;12.60;99.90
15617;DHT22;7908;51.688;7.130;2022-10-01T12:27:38;12.60;99.90
15617;DHT22;7908;51.688;7.130;2022-10-01T12:30:10;12.70;99.90
15617;DHT22;7908;51.688;7.130;2022-10-01T12:32:55;12.80;99.90
15617;DHT22;7908;51.688;7.130;2022-10-01T12:35:43;12.90;99.90
15617;DHT22;7908;51.688;7.130;2022-10-01T12:38:27;13.00;99.90
15617;DHT22;7908;51.688;7.130;2022-10-01T12:41:09;13.20;99.90
15617;DHT22;7908;51.688;7.130;2022-10-01T12:43:49;13.30;99.90
15617;DHT22;7908;51.688;7.130;2022-10-01T12:46:29;13.40;99.90
15617;DHT22;7908;51.688;7.130;2022-10-01T12:49:12;13.50;99.90
15617;DHT22;7908;51.688;7.130;2022-10-01T12:51:57;13.60;99.90
15617;DHT22;7908;51.688;7.130;2022-10-01T12:54:53;13.70;99.90
15617;DHT22;7908;51.688;7.130;2022-10-01T12:57:32;13.80;99.90
15617;DHT22;7908;51.688;7.130;2022-10-01T13:00:09;13.90;99.90
15617;DHT22;7908;51.688;7.130;2022-10-01T13:05:40;14.00;99.90
15617;DHT22;7908;51.688;7.130;2022-10-01T13:08:25;13.90;99.90
15617;DHT22;7908;51.688;7.130;2022-10-01T13:11:03;14.00;99.90
15617;DHT22;7908;51.688;7.130;2022-10-01T13:13:40;14.00;99.90
15617;DHT22;7908;51.688;7.130;2022-10-01T13:16:11;14.10;99.90
15617;DHT22;7908;51.688;7.130;2022-10-01T13:18:52;14.10;99.90
15617;DHT22;7908;51.688;7.130;2022-10-01T13:21:31;14.20;99.90
15617;DHT22;7908;51.688;7.130;2022-10-01T13:24:07;14.30;99.90
15617;DHT22;7908;51.688;7.130;2022-10-01T13:26:45;14.30;99.90
15617;DHT22;7908;51.688;7.130;2022-10-01T13:29:27;14.40;99.90
15617;DHT22;7908;51.688;7.130;2022-10-01T13:32:00;14.40;99.90
15617;DHT22;7908;51.688;7.130;2022-10-01T13:34:37;14.40;99.90
15617;DHT22;7908;51.688;7.130;2022-10-01T13:37:11;14.40;99.90
15617;DHT22;7908;51.688;7.130;2022-10-01T13:39:43;14.40;99.90
15617;DHT22;7908;51.688;7.130;2022-10-01T13:42:22;14.40;99.90
15617;DHT22;7908;51.688;7.130;2022-10-01T13:44:55;14.40;99.90
15617;DHT22;7908;51.688;7.130;2022-10-01T13:47:25;14.40;99.90
15617;DHT22;7908;51.688;7.130;2022-10-01T13:49:56;14.30;99.90
15617;DHT22;7908;51.688;7.130;2022-10-01T13:52:25;14.30;99.90
15617;DHT22;7908;51.688;7.130;2022-10-01T13:54:57;14.30;99.90
15617;DHT22;7908;51.688;7.130;2022-10-01T13:57:31;14.40;99.90
15617;DHT22;7908;51.688;7.130;2022-10-01T14:00:19;14.40;99.90
15617;DHT22;7908;51.688;7.130;2022-10-01T14:03:04;14.50;99.90
15617;DHT22;7908;51.688;7.130;2022-10-01T14:05:37;14.60;99.90
15617;DHT22;7908;51.688;7.130;2022-10-01T14:08:16;14.50;99.90
15617;DHT22;7908;51.688;7.130;2022-10-01T14:10:54;14.40;99.90
15617;DHT22;7908;51.688;7.130;2022-10-01T14:13:44;14.30;99.90
15617;DHT22;7908;51.688;7.130;2022-10-01T14:16:35;14.20;99.90
15617;DHT22;7908;51.688;7.130;2022-10-01T14:19:04;13.90;99.90
15617;DHT22;7908;51.688;7.130;2022-10-01T14:21:48;13.80;99.90
15617;DHT22;7908;51.688;7.130;2022-10-01T14:24:28;13.70;99.90
15617;DHT22;7908;51.688;7.130;2022-10-01T14:27:09;13.60;99.90
15617;DHT22;7908;51.688;7.130;2022-10-01T14:29:47;13.50;99.90
15617;DHT22;7908;51.688;7.130;2022-10-01T14:32:28;13.50;99.90
15617;DHT22;7908;51.688;7.130;2022-10-01T14:35:27;13.50;99.90
15617;DHT22;7908;51.688;7.130;2022-10-01T14:37:58;13.50;99.90
15617;DHT22;7908;51.688;7.130;2022-10-01T14:40:35;13.60;99.90
15617;DHT22;7908;51.688;7.130;2022-10-01T14:43:18;13.60;99.90
15617;DHT22;7908;51.688;7.130;2022-10-01T14:45:54;13.60;99.90
15617;DHT22;7908;51.688;7.130;2022-10-01T14:48:25;13.50;99.90
15617;DHT22;7908;51.688;7.130;2022-10-01T14:50:56;13.50;99.90
15617;DHT22;7908;51.688;7.130;2022-10-01T14:53:28;13.50;99.90
15617;DHT22;7908;51.688;7.130;2022-10-01T14:55:59;13.50;99.90
15617;DHT22;7908;51.688;7.130;2022-10-01T14:58:32;13.50;99.90
15617;DHT22;7908;51.688;7.130;2022-10-01T15:01:04;13.50;99.90
15617;DHT22;7908;51.688;7.130;2022-10-01T15:03:37;13.50;99.90
15617;DHT22;7908;51.688;7.130;2022-10-01T15:06:11;13.60;99.90
15617;DHT22;7908;51.688;7.130;2022-10-01T15:08:41;13.60;99.90
15617;DHT22;7908;51.688;7.130;2022-10-01T15:11:13;13.60;99.90
15617;DHT22;7908;51.688;7.130;2022-10-01T15:13:46;13.60;99.90
15617;DHT22;7908;51.688;7.130;2022-10-01T15:16:16;13.60;99.90
15617;DHT22;7908;51.688;7.130;2022-10-01T15:18:48;13.60;99.90
15617;DHT22;7908;51.688;7.130;2022-10-01T15:21:23;13.70;99.90
15617;DHT22;7908;51.688;7.130;2022-10-01T15:23:53;13.70;99.90
15617;DHT22;7908;51.688;7.130;2022-10-01T15:26:26;13.70;99.90
15617;DHT22;7908;51.688;7.130;2022-10-01T15:29:04;13.70;99.90
15617;DHT22;7908;51.688;7.130;2022-10-01T15:31:34;13.70;99.90
15617;DHT22;7908;51.688;7.130;2022-10-01T15:34:05;13.60;99.90
15617;DHT22;7908;51.688;7.130;2022-10-01T15:36:34;13.60;99.90
15617;DHT22;7908;51.688;7.130;2022-10-01T15:39:17;13.60;99.90
15617;DHT22;7908;51.688;7.130;2022-10-01T15:41:52;13.60;99.90
15617;DHT22;7908;51.688;7.130;2022-10-01T15:44:45;13.60;99.90
15617;DHT22;7908;51.688;7.130;2022-10-01T15:47:24;13.70;99.90
15617;DHT22;7908;51.688;7.130;2022-10-01T15:50:15;13.70;99.90
15617;DHT22;7908;51.688;7.130;2022-10-01T15:52:59;13.70;99.90
15617;DHT22;7908;51.688;7.130;2022-10-01T15:55:32;13.70;99.90
15617;DHT22;7908;51.688;7.130;2022-10-01T15:58:06;13.70;99.90
15617;DHT22;7908;51.688;7.130;2022-10-01T16:00:54;13.70;99.90
15617;DHT22;7908;51.688;7.130;2022-10-01T16:03:26;13.80;99.90
15617;DHT22;7908;51.688;7.130;2022-10-01T16:05:58;13.80;99.90
15617;DHT22;7908;51.688;7.130;2022-10-01T16:08:30;13.80;99.90
15617;DHT22;7908;51.688;7.130;2022-10-01T16:11:14;13.80;99.90
15617;DHT22;7908;51.688;7.130;2022-10-01T16:13:45;13.80;99.90
15617;DHT22;7908;51.688;7.130;2022-10-01T16:16:27;13.80;99.90
15617;DHT22;7908;51.688;7.130;2022-10-01T16:18:58;13.70;99.90
15617;DHT22;7908;51.688;7.130;2022-10-01T16:21:27;13.70;99.90
15617;DHT22;7908;51.688;7.130;2022-10-01T16:23:56;13.70;99.90
15617;DHT22;7908;51.688;7.130;2022-10-01T16:26:34;13.60;99.90
15617;DHT22;7908;51.688;7.130;2022-10-01T16:29:17;13.60;99.90
15617;DHT22;7908;51.688;7.130;2022-10-01T16:31:49;13.60;99.90
15617;DHT22;7908;51.688;7.130;2022-10-01T16:34:19;13.50;99.90